Terminal Aerodrome Forecast
Issued by NWS

Home | Current Version | Previous Version | Graphics & Text | Print | Product List | Glossary On
Versions: 1 2 3 4 5 6 7 8 9 10 11 12 13 14 15 16
000
FTUS43 KFGF 271724
TAFBJI
TAF
KBJI 271724Z 2718/2818 16010KT P6SM VCTS SCT070CB OVC090
     FM272000 18008KT P6SM -TSRA BKN035CB OVC090
     FM280000 17006KT P6SM VCTS SCT200CB
     FM280300 VRB03KT P6SM FEW250
     FM281600 15008KT P6SM SCT100=

USA.gov is the U.S. government's official web portal to all federal, state and local government web resources and services.